Time;durP1;ratioP1;P1;durP2;ratioP2;P2;SDS_P1;SDS_P2;PMS_P1;PMS_P2;Temp;Humidity;BMP_temperature;BMP_pressure;BME280_temperature;BME280_humidity;BME280_pressure;Samples;Min_cycle;Max_cycle;Signal;HPM_P1;HPM_P2
2021/11/23 00:01:47;;;;;;;11.57;2.88;;;7.50;99.90;;;;;;4992963;28;20042;-61
2021/11/23 00:04:13;;;;;;;14.23;2.35;;;7.50;99.90;;;;;;4993124;28;20042;-61
2021/11/23 00:06:38;;;;;;;11.13;2.85;;;7.50;99.90;;;;;;4993097;28;20100;-60
2021/11/23 00:09:04;;;;;;;13.50;2.85;;;7.50;99.90;;;;;;4993122;28;20042;-61
2021/11/23 00:11:31;;;;;;;8.65;2.70;;;7.50;99.90;;;;;;4993181;28;20042;-59
2021/11/23 00:13:57;;;;;;;12.02;2.80;;;7.60;99.90;;;;;;4993036;28;20496;-59
2021/11/23 00:16:22;;;;;;;8.57;2.90;;;7.60;99.90;;;;;;4993030;28;20063;-58
2021/11/23 00:18:48;;;;;;;14.50;2.63;;;7.60;99.90;;;;;;4992995;28;20042;-59
2021/11/23 00:21:15;;;;;;;6.55;2.50;;;7.60;99.90;;;;;;4992624;28;20050;-58
2021/11/23 00:23:41;;;;;;;8.40;2.75;;;7.60;99.90;;;;;;4992845;28;20049;-58
2021/11/23 00:26:06;;;;;;;7.10;2.30;;;7.70;99.90;;;;;;4992191;28;20069;-59
2021/11/23 00:28:32;;;;;;;9.52;2.38;;;7.70;99.90;;;;;;4992591;28;20038;-59
2021/11/23 00:30:58;;;;;;;6.65;2.83;;;7.70;99.90;;;;;;4992854;28;20047;-58
2021/11/23 00:33:24;;;;;;;13.50;2.83;;;7.70;99.90;;;;;;4992660;28;20480;-59
2021/11/23 00:35:50;;;;;;;7.50;2.58;;;7.80;99.90;;;;;;4992639;28;20492;-59
2021/11/23 00:38:16;;;;;;;7.75;3.20;;;7.80;99.90;;;;;;4992585;28;20046;-58
2021/11/23 00:40:43;;;;;;;9.43;3.10;;;7.80;99.90;;;;;;4992405;28;20065;-59
2021/11/23 00:43:08;;;;;;;6.95;2.38;;;7.80;99.90;;;;;;4991676;28;20046;-59
2021/11/23 00:45:36;;;;;;;11.18;2.80;;;7.80;99.90;;;;;;4992661;28;20038;-60
2021/11/23 00:48:03;;;;;;;10.98;2.85;;;7.80;99.90;;;;;;4992538;28;20042;-61
2021/11/23 00:50:29;;;;;;;8.18;2.58;;;7.90;99.90;;;;;;4992434;28;20615;-59
2021/11/23 00:52:55;;;;;;;10.10;2.50;;;7.90;99.90;;;;;;4992233;28;20165;-59
2021/11/23 00:55:21;;;;;;;10.25;2.30;;;7.90;99.90;;;;;;4992527;28;20113;-58
2021/11/23 00:57:46;;;;;;;7.75;2.88;;;7.90;99.90;;;;;;4992532;28;20177;-59
2021/11/23 01:00:13;;;;;;;8.43;2.75;;;7.90;99.90;;;;;;4992694;28;20049;-59
2021/11/23 01:02:39;;;;;;;8.02;2.20;;;7.90;99.90;;;;;;4992753;28;20737;-59
2021/11/23 01:05:05;;;;;;;8.07;2.45;;;7.90;99.90;;;;;;4992449;28;20041;-58
2021/11/23 01:07:32;;;;;;;9.52;2.65;;;7.90;99.90;;;;;;4992331;28;20255;-59
2021/11/23 01:09:58;;;;;;;8.18;2.90;;;8.00;99.90;;;;;;4992567;28;20384;-59
2021/11/23 01:12:24;;;;;;;10.80;2.95;;;8.00;99.90;;;;;;4992396;28;20042;-59
2021/11/23 01:14:50;;;;;;;5.72;2.22;;;8.00;99.90;;;;;;4992341;28;20049;-59
2021/11/23 01:17:16;;;;;;;5.90;2.53;;;8.00;99.90;;;;;;4992313;28;20042;-59
2021/11/23 01:19:43;;;;;;;7.55;3.35;;;8.10;99.90;;;;;;4992139;28;20460;-59
2021/11/23 01:22:09;;;;;;;8.13;2.85;;;8.10;99.90;;;;;;4992029;28;20057;-59
2021/11/23 01:24:35;;;;;;;7.55;2.60;;;8.10;99.90;;;;;;4992412;28;20042;-59
2021/11/23 01:27:00;;;;;;;8.15;2.50;;;8.10;99.90;;;;;;4992395;28;20038;-59
2021/11/23 01:29:26;;;;;;;8.52;2.38;;;8.10;99.90;;;;;;4992324;28;20500;-59
2021/11/23 01:31:52;;;;;;;8.13;2.47;;;8.10;99.90;;;;;;4992115;28;20128;-59
2021/11/23 01:34:19;;;;;;;12.57;2.58;;;8.20;99.90;;;;;;4992223;28;20038;-59
2021/11/23 01:36:46;;;;;;;9.65;2.47;;;8.20;99.90;;;;;;4992939;28;20473;-58
2021/11/23 01:39:12;;;;;;;9.15;3.00;;;8.20;99.90;;;;;;4995763;28;20042;-58
2021/11/23 01:41:38;;;;;;;11.52;2.90;;;8.20;99.90;;;;;;4995802;28;20042;-59
2021/11/23 01:44:04;;;;;;;7.93;2.58;;;8.20;99.90;;;;;;4995795;28;20038;-59
2021/11/23 01:46:30;;;;;;;9.65;2.30;;;8.20;99.90;;;;;;4994597;28;20077;-58
2021/11/23 01:48:55;;;;;;;12.38;2.67;;;8.20;99.90;;;;;;4995556;28;20065;-59
2021/11/23 01:51:21;;;;;;;11.32;2.85;;;8.20;99.90;;;;;;4995436;28;20415;-59
2021/11/23 01:53:47;;;;;;;9.68;2.80;;;8.20;99.90;;;;;;4995663;28;20560;-59
2021/11/23 01:56:13;;;;;;;11.90;3.45;;;8.20;99.90;;;;;;4995494;28;20034;-59
2021/11/23 01:58:39;;;;;;;13.43;2.83;;;8.30;99.90;;;;;;4995789;28;20613;-59
2021/11/23 02:01:06;;;;;;;8.65;2.80;;;8.20;99.90;;;;;;4995286;28;20081;-59
2021/11/23 02:03:34;;;;;;;12.10;2.97;;;8.20;99.90;;;;;;4995490;28;20085;-59
2021/11/23 02:06:00;;;;;;;14.43;3.80;;;8.20;99.90;;;;;;4995739;28;20042;-59
2021/11/23 02:08:26;;;;;;;10.13;2.60;;;8.30;99.90;;;;;;4995357;28;20108;-59
2021/11/23 02:10:52;;;;;;;11.20;3.00;;;8.30;99.90;;;;;;4995337;28;20129;-59
2021/11/23 02:13:18;;;;;;;13.15;3.42;;;8.30;99.90;;;;;;4995366;28;20122;-58
2021/11/23 02:15:43;;;;;;;12.25;2.75;;;8.30;99.90;;;;;;4995220;28;20467;-59
2021/11/23 02:18:15;;;;;;;14.18;2.45;;;8.30;99.90;;;;;;4994956;28;20116;-59
2021/11/23 02:20:42;;;;;;;9.40;1.98;;;8.40;99.90;;;;;;4994932;28;20415;-59
2021/11/23 02:23:08;;;;;;;7.10;1.88;;;8.40;99.90;;;;;;4995037;28;20129;-59
2021/11/23 02:25:33;;;;;;;10.15;2.47;;;8.40;99.90;;;;;;4995056;28;20117;-59
2021/11/23 02:28:00;;;;;;;13.13;3.17;;;8.40;99.90;;;;;;4994828;28;20181;-59
2021/11/23 02:30:26;;;;;;;8.65;2.63;;;8.40;99.90;;;;;;4993762;28;20080;-59
2021/11/23 02:32:52;;;;;;;10.57;2.20;;;8.40;99.90;;;;;;4994652;28;20046;-59
2021/11/23 02:35:19;;;;;;;11.52;1.75;;;8.40;99.90;;;;;;4994956;28;20042;-58
2021/11/23 02:37:47;;;;;;;10.10;2.00;;;8.50;99.90;;;;;;4994468;28;20519;-59
2021/11/23 02:40:14;;;;;;;7.10;1.67;;;8.50;99.90;;;;;;4994588;28;20043;-61
2021/11/23 02:42:40;;;;;;;9.40;1.80;;;8.50;99.90;;;;;;4994630;28;20039;-59
2021/11/23 02:45:07;;;;;;;6.93;1.58;;;8.50;99.90;;;;;;4994526;28;20500;-59
2021/11/23 02:47:38;;;;;;;7.07;1.60;;;8.50;99.90;;;;;;4994362;28;20038;-60
2021/11/23 02:50:07;;;;;;;8.23;1.65;;;8.50;99.90;;;;;;4993997;28;20042;-59
2021/11/23 02:52:32;;;;;;;13.68;1.90;;;8.50;99.90;;;;;;4994662;28;20081;-59
2021/11/23 02:55:01;;;;;;;13.10;1.65;;;8.50;99.90;;;;;;4994384;28;20096;-59
2021/11/23 02:57:31;;;;;;;6.90;2.15;;;8.50;99.90;;;;;;4994617;28;20069;-60
2021/11/23 02:59:58;;;;;;;10.00;1.65;;;8.50;99.90;;;;;;4994120;28;20074;-60
2021/11/23 03:02:25;;;;;;;12.13;1.92;;;8.50;99.90;;;;;;4993952;28;20477;-59
2021/11/23 03:04:55;;;;;;;8.13;1.95;;;8.60;99.90;;;;;;4994319;28;20038;-60
2021/11/23 03:07:22;;;;;;;9.15;1.88;;;8.50;99.90;;;;;;4994259;28;20050;-60
2021/11/23 03:09:48;;;;;;;12.85;2.83;;;8.60;99.90;;;;;;4994142;28;20092;-60
2021/11/23 03:12:20;;;;;;;10.15;2.55;;;8.60;99.90;;;;;;4994007;28;20042;-60
2021/11/23 03:14:46;;;;;;;8.25;1.60;;;8.50;99.90;;;;;;4994061;28;20057;-59
2021/11/23 03:17:13;;;;;;;9.07;2.00;;;8.50;99.90;;;;;;4994050;28;20050;-59
2021/11/23 03:19:40;;;;;;;12.85;2.00;;;8.50;99.90;;;;;;4993815;28;20061;-60
2021/11/23 03:22:07;;;;;;;8.52;1.80;;;8.50;99.90;;;;;;4993823;28;20073;-60
2021/11/23 03:24:33;;;;;;;8.73;1.65;;;8.60;99.90;;;;;;4993783;28;20045;-60
2021/11/23 03:26:59;;;;;;;12.90;1.83;;;8.50;99.90;;;;;;4993728;28;20030;-60
2021/11/23 03:29:25;;;;;;;8.50;1.80;;;8.50;99.90;;;;;;4993800;28;20388;-60
2021/11/23 03:31:51;;;;;;;11.88;1.58;;;8.50;99.90;;;;;;4993803;28;20124;-59
2021/11/23 03:34:17;;;;;;;8.77;1.40;;;8.50;99.90;;;;;;4993676;28;20038;-59
2021/11/23 03:36:43;;;;;;;7.63;1.48;;;8.40;99.90;;;;;;4993631;28;20487;-60
2021/11/23 03:39:09;;;;;;;12.18;1.60;;;8.40;99.90;;;;;;4993646;28;20038;-59
2021/11/23 03:41:35;;;;;;;9.25;1.30;;;8.40;99.90;;;;;;4993435;28;20100;-60
2021/11/23 03:44:04;;;;;;;6.95;1.50;;;8.40;99.90;;;;;;4993831;28;20042;-60
2021/11/23 03:46:30;;;;;;;14.00;1.75;;;8.40;99.90;;;;;;4993603;28;20388;-60
2021/11/23 03:48:56;;;;;;;10.20;1.25;;;8.30;99.90;;;;;;4993505;28;20113;-60
2021/11/23 03:51:22;;;;;;;8.05;1.92;;;8.40;99.90;;;;;;4993596;28;20702;-60
2021/11/23 03:53:47;;;;;;;7.40;1.67;;;8.40;99.90;;;;;;4993563;28;20093;-60
2021/11/23 03:56:13;;;;;;;8.85;1.67;;;8.30;99.90;;;;;;4993411;28;20073;-60
2021/11/23 03:58:43;;;;;;;7.20;1.95;;;8.30;99.90;;;;;;4993298;28;20039;-60
2021/11/23 04:01:08;;;;;;;;;;;8.20;99.90;;;;;;4993653;28;20837;-60
2021/11/23 04:03:34;;;;;;;23.95;2.75;;;8.30;99.90;;;;;;4993237;28;19960;-59
2021/11/23 04:06:02;;;;;;;9.77;1.23;;;8.20;99.90;;;;;;4993050;28;20126;-59
2021/11/23 04:08:27;;;;;;;5.60;1.83;;;8.20;99.90;;;;;;4992944;28;20038;-60
2021/11/23 04:10:54;;;;;;;9.38;1.70;;;8.20;99.90;;;;;;4992930;28;20190;-59
2021/11/23 04:13:20;;;;;;;8.07;1.40;;;8.20;99.90;;;;;;4993089;28;20043;-60
2021/11/23 04:15:47;;;;;;;9.23;1.80;;;8.20;99.90;;;;;;4993073;28;20053;-59
2021/11/23 04:18:13;;;;;;;9.10;1.80;;;8.30;99.90;;;;;;4992984;28;20049;-59
2021/11/23 04:20:39;;;;;;;11.88;2.22;;;8.30;99.90;;;;;;4992702;28;20065;-59
2021/11/23 04:23:05;;;;;;;8.65;2.03;;;8.30;99.90;;;;;;4992823;28;20042;-59
2021/11/23 04:25:31;;;;;;;7.00;1.95;;;8.40;99.90;;;;;;4992657;28;20046;-60
2021/11/23 04:27:57;;;;;;;17.90;2.60;;;8.40;99.90;;;;;;4992838;28;20045;-60
2021/11/23 04:30:24;;;;;;;8.10;1.50;;;8.30;99.90;;;;;;4992462;28;20042;-60
2021/11/23 04:32:50;;;;;;;9.18;1.35;;;8.30;99.90;;;;;;4992549;28;20042;-60
2021/11/23 04:35:17;;;;;;;11.52;1.30;;;8.30;99.90;;;;;;4992495;28;20049;-59
2021/11/23 04:37:43;;;;;;;5.78;1.50;;;8.30;99.90;;;;;;4991130;28;20042;-60
2021/11/23 04:40:10;;;;;;;14.07;1.65;;;8.30;99.90;;;;;;4992316;28;20492;-60
2021/11/23 04:42:37;;;;;;;8.82;1.77;;;8.30;99.90;;;;;;4992222;28;20172;-60
2021/11/23 04:45:05;;;;;;;8.95;1.95;;;8.20;99.90;;;;;;4992202;28;20038;-60
2021/11/23 04:47:31;;;;;;;10.05;1.75;;;8.20;99.90;;;;;;4992537;28;20042;-60
2021/11/23 04:49:57;;;;;;;9.48;1.60;;;8.20;99.90;;;;;;5007513;28;20042;-60
2021/11/23 04:52:23;;;;;;;12.50;1.98;;;8.10;99.90;;;;;;4992259;28;20042;-59
2021/11/23 04:54:49;;;;;;;12.18;1.60;;;8.20;99.90;;;;;;4992318;28;20501;-60
2021/11/23 04:57:15;;;;;;;10.05;1.40;;;8.10;99.90;;;;;;4992167;28;20078;-60
2021/11/23 04:59:40;;;;;;;10.57;2.45;;;8.10;99.90;;;;;;4992658;28;20048;-60
2021/11/23 05:02:06;;;;;;;4.95;1.48;;;8.10;99.90;;;;;;4992016;28;20385;-60
2021/11/23 05:04:32;;;;;;;11.18;1.63;;;8.10;99.90;;;;;;4992243;28;20050;-60
2021/11/23 05:06:57;;;;;;;10.65;1.98;;;8.10;99.90;;;;;;4992243;28;20038;-60
2021/11/23 05:09:23;;;;;;;12.57;1.98;;;8.10;99.90;;;;;;4992407;28;20046;-59
2021/11/23 05:11:49;;;;;;;12.07;1.52;;;8.00;99.90;;;;;;4993176;28;20088;-60
2021/11/23 05:14:15;;;;;;;13.02;2.03;;;8.00;99.90;;;;;;4996240;28;20038;-60
2021/11/23 05:16:42;;;;;;;6.28;2.08;;;7.90;99.90;;;;;;4995957;28;20038;-60
2021/11/23 05:19:08;;;;;;;12.32;1.38;;;7.90;99.90;;;;;;4996139;28;20049;-60
2021/11/23 05:21:33;;;;;;;11.98;2.47;;;7.90;99.90;;;;;;4995527;28;20138;-60
2021/11/23 05:23:59;;;;;;;11.73;1.92;;;7.80;99.90;;;;;;4996127;28;20168;-60
2021/11/23 05:26:25;;;;;;;10.38;1.58;;;7.90;99.90;;;;;;4996042;28;20089;-60
2021/11/23 05:28:50;;;;;;;11.57;2.47;;;7.90;99.90;;;;;;4995788;28;20480;-60
2021/11/23 05:31:16;;;;;;;8.88;1.38;;;7.90;99.90;;;;;;4995871;28;20038;-60
2021/11/23 05:33:42;;;;;;;12.73;1.90;;;7.90;99.90;;;;;;4995750;28;20038;-59
2021/11/23 05:36:08;;;;;;;10.80;2.25;;;7.90;99.90;;;;;;4995622;28;20141;-60
2021/11/23 05:38:33;;;;;;;10.52;1.75;;;7.90;99.90;;;;;;4995792;28;20042;-60
2021/11/23 05:40:59;;;;;;;10.45;2.00;;;7.90;99.90;;;;;;4995547;28;20038;-60
2021/11/23 05:43:25;;;;;;;6.65;1.20;;;7.90;99.90;;;;;;4995658;28;20039;-60
2021/11/23 05:45:50;;;;;;;9.63;1.92;;;7.90;99.90;;;;;;4995532;28;20385;-60
2021/11/23 05:48:16;;;;;;;8.25;1.50;;;7.90;99.90;;;;;;4995501;28;20039;-60
2021/11/23 05:50:42;;;;;;;7.32;1.45;;;7.90;99.90;;;;;;4995608;28;20035;-60
2021/11/23 05:53:08;;;;;;;6.78;1.35;;;7.90;99.90;;;;;;4995527;28;20496;-60
2021/11/23 05:55:34;;;;;;;7.15;1.80;;;7.80;99.90;;;;;;4995431;28;20388;-60
2021/11/23 05:58:00;;;;;;;9.90;1.17;;;7.70;99.90;;;;;;4995315;28;20043;-60
2021/11/23 06:00:26;;;;;;;11.63;1.40;;;7.70;99.90;;;;;;4995104;28;20484;-60
2021/11/23 06:02:52;;;;;;;7.82;1.88;;;7.70;99.90;;;;;;4995071;28;20042;-60
2021/11/23 06:05:19;;;;;;;6.60;1.00;;;7.60;99.90;;;;;;4994975;28;20054;-60
2021/11/23 06:07:44;;;;;;;5.25;1.30;;;7.60;99.90;;;;;;4995331;28;20424;-60
2021/11/23 06:10:10;;;;;;;10.95;1.98;;;7.60;99.90;;;;;;4995073;28;20042;-60
2021/11/23 06:12:36;;;;;;;11.57;1.33;;;7.50;99.90;;;;;;4995334;28;20039;-60
2021/11/23 06:15:03;;;;;;;5.40;1.75;;;7.50;99.90;;;;;;4994839;28;20515;-60
2021/11/23 06:17:29;;;;;;;10.90;1.98;;;7.50;99.90;;;;;;4994953;28;20128;-60
2021/11/23 06:19:54;;;;;;;10.73;1.83;;;7.50;99.90;;;;;;4994490;28;20411;-60
2021/11/23 06:22:22;;;;;;;13.73;1.65;;;7.50;99.90;;;;;;4994666;28;20043;-60
2021/11/23 06:24:48;;;;;;;8.35;1.88;;;7.50;99.90;;;;;;4993810;28;20121;-60
2021/11/23 06:27:14;;;;;;;9.73;2.58;;;7.50;99.90;;;;;;4994789;28;20140;-60
2021/11/23 06:29:40;;;;;;;11.45;2.13;;;7.50;99.90;;;;;;4994676;28;20058;-59
2021/11/23 06:32:07;;;;;;;4.32;1.40;;;7.40;99.90;;;;;;4994605;28;20054;-60
2021/11/23 06:34:33;;;;;;;10.90;1.83;;;7.50;99.90;;;;;;4994361;28;20042;-60
2021/11/23 06:37:00;;;;;;;8.15;2.00;;;7.50;99.90;;;;;;4994432;28;20048;-60
2021/11/23 06:39:26;;;;;;;8.15;1.45;;;7.50;99.90;;;;;;4994645;28;20043;-60
2021/11/23 06:41:52;;;;;;;8.10;2.25;;;7.50;99.90;;;;;;4994455;28;20046;-60
2021/11/23 06:44:18;;;;;;;12.63;2.20;;;7.50;99.90;;;;;;4994362;28;20031;-60
2021/11/23 06:46:43;;;;;;;9.27;1.70;;;7.50;99.90;;;;;;4994320;28;20081;-60
2021/11/23 06:49:09;;;;;;;14.43;2.13;;;7.50;99.90;;;;;;4994585;28;20043;-60
2021/11/23 06:51:35;;;;;;;9.70;1.83;;;7.50;99.90;;;;;;4994541;28;20050;-60
2021/11/23 06:54:00;;;;;;;12.95;1.92;;;7.50;99.90;;;;;;4994164;28;20039;-59
2021/11/23 06:56:26;;;;;;;7.90;1.55;;;7.60;99.90;;;;;;4994190;28;20117;-59
2021/11/23 06:58:52;;;;;;;10.38;2.63;;;7.60;99.90;;;;;;4994190;28;20049;-62
2021/11/23 07:01:18;;;;;;;13.60;1.98;;;7.70;99.90;;;;;;4994062;28;20060;-59
2021/11/23 07:03:44;;;;;;;8.05;2.08;;;7.70;99.90;;;;;;4993991;28;20081;-59
2021/11/23 07:06:09;;;;;;;7.55;1.95;;;7.70;99.90;;;;;;4993987;28;20042;-59
2021/11/23 07:08:36;;;;;;;11.90;1.83;;;7.80;99.90;;;;;;4993909;28;20034;-60
2021/11/23 07:11:02;;;;;;;6.57;2.25;;;7.80;99.90;;;;;;4993897;28;20125;-60
2021/11/23 07:13:28;;;;;;;10.23;2.38;;;7.90;99.90;;;;;;4993899;28;20035;-60
2021/11/23 07:15:54;;;;;;;11.77;2.38;;;7.90;99.90;;;;;;4993596;28;20382;-59
2021/11/23 07:18:20;;;;;;;10.38;2.25;;;7.90;99.90;;;;;;4993476;28;20082;-59
2021/11/23 07:20:45;;;;;;;7.18;2.70;;;7.90;99.90;;;;;;4993368;28;20496;-59
2021/11/23 07:23:15;;;;;;;12.10;2.10;;;7.90;99.90;;;;;;4993654;28;20057;-60
2021/11/23 07:25:40;;;;;;;6.63;2.22;;;7.90;99.90;;;;;;4993602;28;20117;-59
2021/11/23 07:28:06;;;;;;;18.38;2.40;;;7.90;99.90;;;;;;4993458;28;20181;-59
2021/11/23 07:30:32;;;;;;;15.75;2.50;;;7.90;99.90;;;;;;4993296;28;20154;-59
2021/11/23 07:32:57;;;;;;;18.88;2.20;;;7.90;99.90;;;;;;4993563;28;20125;-59
2021/11/23 07:35:23;;;;;;;15.25;3.28;;;7.90;99.90;;;;;;4993097;28;20038;-59
2021/11/23 07:37:49;;;;;;;10.88;2.03;;;7.90;99.90;;;;;;4993454;28;20491;-59
2021/11/23 07:40:16;;;;;;;9.32;2.53;;;8.00;99.90;;;;;;4993429;28;20085;-59
2021/11/23 07:42:43;;;;;;;7.75;1.92;;;7.90;99.90;;;;;;4993437;28;20195;-59
2021/11/23 07:45:09;;;;;;;6.75;1.63;;;7.90;99.90;;;;;;4993516;28;20042;-59
2021/11/23 07:47:36;;;;;;;6.95;1.80;;;8.00;99.90;;;;;;4993178;28;20034;-60
2021/11/23 07:50:02;;;;;;;12.75;2.55;;;8.00;99.90;;;;;;4993049;28;20089;-59
2021/11/23 07:52:27;;;;;;;9.18;1.95;;;8.10;99.90;;;;;;4991411;28;20058;-60
2021/11/23 07:54:53;;;;;;;11.07;2.42;;;8.00;99.90;;;;;;4993007;28;20038;-60
2021/11/23 07:57:19;;;;;;;11.40;1.77;;;8.00;99.90;;;;;;4993027;28;20611;-60
2021/11/23 07:59:45;;;;;;;6.55;1.92;;;8.00;99.90;;;;;;4992843;28;20042;-60
2021/11/23 08:02:10;;;;;;;8.25;1.65;;;8.00;99.90;;;;;;4992851;28;20034;-60
2021/11/23 08:04:36;;;;;;;6.63;2.13;;;8.00;99.90;;;;;;4992822;28;20046;-61
2021/11/23 08:07:02;;;;;;;9.80;1.73;;;8.00;99.90;;;;;;4992984;28;20121;-61
2021/11/23 08:09:27;;;;;;;8.40;1.85;;;8.00;99.90;;;;;;4992765;28;20096;-61
2021/11/23 08:11:53;;;;;;;14.98;2.13;;;8.00;99.90;;;;;;4992605;28;20045;-61
2021/11/23 08:14:20;;;;;;;12.23;2.38;;;7.90;99.90;;;;;;4992677;28;20050;-61
2021/11/23 08:16:46;;;;;;;6.30;1.27;;;7.90;99.90;;;;;;4992801;28;20093;-61
2021/11/23 08:19:12;;;;;;;9.52;1.58;;;7.90;99.90;;;;;;4992851;28;20034;-61
2021/11/23 08:21:37;;;;;;;7.70;2.40;;;7.90;99.90;;;;;;4992320;28;20125;-59
2021/11/23 08:24:03;;;;;;;8.55;2.17;;;7.80;99.90;;;;;;4992628;28;20137;-59
2021/11/23 08:26:29;;;;;;;10.68;2.00;;;7.80;99.90;;;;;;4992636;28;20038;-59
2021/11/23 08:28:54;;;;;;;7.55;1.48;;;7.80;99.90;;;;;;4992556;28;20100;-58
2021/11/23 08:31:20;;;;;;;4.57;1.85;;;7.80;99.90;;;;;;4992923;28;20494;-61
2021/11/23 08:33:46;;;;;;;9.68;1.80;;;7.90;99.90;;;;;;4990917;28;20136;-58
2021/11/23 08:36:11;;;;;;;8.25;1.90;;;7.90;99.90;;;;;;4992501;28;20042;-59
2021/11/23 08:38:38;;;;;;;7.10;1.75;;;7.90;99.90;;;;;;4992524;28;20491;-59
2021/11/23 08:41:05;;;;;;;12.55;1.88;;;7.90;99.90;;;;;;4992201;28;20081;-59
2021/11/23 08:43:30;;;;;;;14.57;2.80;;;8.00;99.90;;;;;;4992252;28;20042;-59
2021/11/23 08:45:56;;;;;;;9.10;1.83;;;8.00;99.90;;;;;;4992070;28;20030;-61
2021/11/23 08:48:22;;;;;;;5.68;1.92;;;8.10;99.90;;;;;;4992282;28;20038;-61
2021/11/23 08:50:48;;;;;;;11.25;2.78;;;8.10;99.90;;;;;;4992399;28;20394;-60
2021/11/23 08:53:14;;;;;;;15.25;2.78;;;8.10;99.90;;;;;;4992217;28;20370;-61
2021/11/23 08:55:40;;;;;;;10.77;2.40;;;8.20;99.90;;;;;;4992344;28;20038;-60
2021/11/23 08:58:07;;;;;;;13.15;1.67;;;8.30;99.90;;;;;;4992165;28;20034;-61
2021/11/23 09:00:34;;;;;;;13.90;2.15;;;8.40;99.90;;;;;;4992241;28;20061;-58
2021/11/23 09:03:00;;;;;;;9.63;1.88;;;8.50;99.90;;;;;;4992309;28;20043;-59
2021/11/23 09:05:31;;;;;;;9.25;2.35;;;8.60;99.90;;;;;;4992226;28;20038;-59
2021/11/23 09:08:02;;;;;;;8.90;1.85;;;8.70;99.90;;;;;;4992179;28;20045;-59
2021/11/23 09:10:29;;;;;;;7.43;1.30;;;8.70;99.90;;;;;;4992146;28;20042;-59
2021/11/23 09:12:57;;;;;;;7.65;1.80;;;8.80;99.90;;;;;;4992075;28;20408;-58
2021/11/23 09:15:24;;;;;;;14.18;1.58;;;8.80;99.90;;;;;;4992308;28;20060;-59
2021/11/23 09:17:50;;;;;;;13.88;2.25;;;8.90;99.90;;;;;;4992347;28;20046;-59
2021/11/23 09:20:18;;;;;;;17.48;2.95;;;8.90;99.90;;;;;;4991958;28;20061;-59
2021/11/23 09:22:45;;;;;;;9.65;1.60;;;8.90;99.90;;;;;;4992051;28;20050;-59
2021/11/23 09:25:13;;;;;;;12.63;2.35;;;8.90;99.90;;;;;;4992052;28;20046;-60
2021/11/23 09:27:39;;;;;;;20.20;3.03;;;9.00;99.90;;;;;;4992038;28;20045;-59
2021/11/23 09:30:10;;;;;;;8.65;2.03;;;9.00;99.90;;;;;;4992002;28;20121;-59
2021/11/23 09:32:36;;;;;;;14.90;2.10;;;9.00;99.90;;;;;;4992486;28;20050;-59
2021/11/23 09:35:02;;;;;;;7.65;2.35;;;9.10;99.90;;;;;;4992141;28;20070;-59
2021/11/23 09:37:28;;;;;;;9.82;2.25;;;9.10;99.90;;;;;;4990848;28;20443;-59
2021/11/23 09:39:54;;;;;;;8.52;2.05;;;9.20;99.90;;;;;;4991845;28;20042;-59
2021/11/23 09:42:19;;;;;;;9.73;1.80;;;9.20;99.90;;;;;;4991998;28;20097;-59
2021/11/23 09:44:46;;;;;;;9.27;1.70;;;9.20;99.90;;;;;;4991994;28;20085;-59
2021/11/23 09:47:12;;;;;;;10.50;1.65;;;9.20;99.90;;;;;;4991943;28;20046;-59
2021/11/23 09:49:38;;;;;;;9.95;1.90;;;9.20;99.90;;;;;;4991942;28;20066;-59
2021/11/23 09:52:06;;;;;;;11.68;1.60;;;9.20;99.90;;;;;;4991698;28;20165;-59
2021/11/23 09:54:32;;;;;;;11.70;2.88;;;9.40;99.90;;;;;;4991982;28;20050;-59
2021/11/23 09:56:57;;;;;;;8.32;1.60;;;9.60;99.90;;;;;;4991728;28;20038;-59
2021/11/23 09:59:23;;;;;;;7.40;1.52;;;9.80;99.90;;;;;;4995013;28;20482;-59
2021/11/23 10:01:59;;;;;;;7.70;1.42;;;9.90;99.90;;;;;;4995052;28;20046;-59
2021/11/23 10:04:28;;;;;;;7.75;3.17;;;9.90;99.90;;;;;;4995114;28;20034;-59
2021/11/23 10:07:06;;;;;;;10.35;1.92;;;10.00;99.90;;;;;;4994061;28;20157;-59
2021/11/23 10:09:44;;;;;;;8.13;1.48;;;10.10;99.90;;;;;;4995236;28;20081;-59
2021/11/23 10:12:24;;;;;;;8.00;1.55;;;10.10;99.90;;;;;;4995140;28;20435;-59
2021/11/23 10:15:08;;;;;;;;;;;10.10;99.90;;;;;;4995315;28;20559;-59
2021/11/23 10:17:34;;;;;;;7.40;1.40;;;10.20;99.90;;;;;;4994872;28;19934;-59
2021/11/23 10:20:00;;;;;;;7.13;1.40;;;10.20;99.90;;;;;;4993655;28;20061;-59
2021/11/23 10:22:34;;;;;;;9.40;1.58;;;10.30;99.90;;;;;;4994910;28;20042;-59
2021/11/23 10:25:06;;;;;;;7.07;1.10;;;10.30;99.90;;;;;;4994758;28;20043;-59
2021/11/23 10:27:33;;;;;;;6.80;1.38;;;10.40;99.90;;;;;;4994859;28;20047;-59
2021/11/23 10:30:00;;;;;;;8.23;1.80;;;10.40;99.90;;;;;;4994772;28;20042;-59
2021/11/23 10:32:27;;;;;;;9.05;1.10;;;10.50;99.90;;;;;;4995045;28;20156;-59
2021/11/23 10:34:53;;;;;;;16.88;2.65;;;10.60;99.90;;;;;;4995037;28;20465;-59
2021/11/23 10:37:33;;;;;;;7.15;2.17;;;10.60;99.90;;;;;;4994659;28;20124;-60
2021/11/23 10:40:17;;;;;;;;;;;10.70;99.90;;;;;;4995387;28;20381;-59
2021/11/23 10:42:48;;;;;;;8.95;2.38;;;10.80;99.90;;;;;;4994490;28;20055;-59
2021/11/23 10:45:14;;;;;;;10.23;1.65;;;11.00;99.90;;;;;;4994322;28;20539;-59
2021/11/23 10:47:42;;;;;;;7.15;1.35;;;11.20;99.90;;;;;;4994378;28;20039;-60
2021/11/23 10:50:11;;;;;;;8.53;1.33;;;11.20;99.90;;;;;;4994393;28;20057;-59
2021/11/23 10:52:45;;;;;;;6.60;1.42;;;11.10;99.90;;;;;;4994733;28;20043;-59
2021/11/23 10:55:17;;;;;;;6.55;1.02;;;10.90;99.90;;;;;;4994599;28;20046;-61
2021/11/23 10:57:44;;;;;;;9.95;2.03;;;10.80;99.90;;;;;;4994221;28;20046;-59
2021/11/23 11:00:11;;;;;;;5.82;1.20;;;10.70;99.90;;;;;;4992855;28;20180;-60
2021/11/23 11:02:39;;;;;;;9.15;1.60;;;10.70;99.90;;;;;;4994145;28;20053;-59
2021/11/23 11:05:10;;;;;;;6.82;1.92;;;10.60;99.90;;;;;;4994062;28;20085;-59
2021/11/23 11:07:37;;;;;;;5.30;1.95;;;10.60;99.90;;;;;;4993902;28;20121;-59
2021/11/23 11:10:08;;;;;;;9.23;1.52;;;10.60;99.90;;;;;;4993486;28;20049;-59
2021/11/23 11:12:35;;;;;;;8.18;2.03;;;10.50;99.90;;;;;;4994108;28;20117;-60
2021/11/23 11:15:04;;;;;;;11.73;2.22;;;10.50;99.90;;;;;;4993735;28;20492;-59
2021/11/23 11:17:30;;;;;;;14.73;2.50;;;10.50;99.90;;;;;;4993808;28;20046;-59
2021/11/23 11:19:59;;;;;;;8.77;1.45;;;10.60;99.90;;;;;;4993492;28;20041;-58
2021/11/23 11:22:26;;;;;;;8.25;1.77;;;10.80;99.90;;;;;;4993895;28;20073;-59
2021/11/23 11:27:42;;;;;;;9.40;1.40;;;11.00;99.90;;;;;;4993683;28;20081;-59
2021/11/23 11:30:29;;;;;;;8.60;1.30;;;11.10;99.90;;;;;;4993590;28;20097;-60
2021/11/23 11:33:04;;;;;;;6.47;1.27;;;11.20;99.90;;;;;;4993621;28;20050;-60
2021/11/23 11:35:47;;;;;;;6.45;1.88;;;11.40;99.90;;;;;;4993543;28;20400;-59
2021/11/23 11:38:27;;;;;;;6.82;1.33;;;11.40;99.90;;;;;;4993333;28;20042;-60
2021/11/23 11:41:01;;;;;;;5.45;1.20;;;11.40;99.90;;;;;;4992013;28;20042;-59
2021/11/23 11:43:36;;;;;;;5.50;1.23;;;11.40;99.90;;;;;;4993482;28;20385;-59
2021/11/23 11:46:04;;;;;;;12.57;2.00;;;11.40;99.90;;;;;;4992202;28;20042;-60
2021/11/23 11:48:30;;;;;;;4.72;1.23;;;11.40;99.90;;;;;;4993322;28;20034;-59
2021/11/23 11:51:26;;;;;;;3.03;1.20;;;11.40;99.90;;;;;;4992027;28;20046;-59
2021/11/23 11:53:53;;;;;;;14.95;2.40;;;11.40;99.90;;;;;;4952260;29;20144;-59
2021/11/23 11:56:38;;;;;;;9.77;2.58;;;11.30;99.90;;;;;;4952255;29;20048;-59
2021/11/23 11:59:23;;;;;;;3.28;1.00;;;11.40;99.90;;;;;;4952129;29;20521;-59
2021/11/23 12:02:00;;;;;;;5.95;0.98;;;11.40;99.90;;;;;;4952171;29;20418;-60
2021/11/23 12:04:27;;;;;;;4.65;1.05;;;11.40;99.90;;;;;;4952098;29;20398;-60
2021/11/23 12:06:56;;;;;;;20.50;2.55;;;11.40;99.90;;;;;;4952011;29;20047;-59
2021/11/23 12:09:28;;;;;;;7.07;2.45;;;11.40;99.90;;;;;;4952118;29;20508;-60
2021/11/23 12:12:14;;;;;;;8.68;1.40;;;11.40;99.90;;;;;;4951901;29;20051;-59
2021/11/23 12:14:52;;;;;;;6.32;1.52;;;11.40;99.90;;;;;;4950700;29;20039;-59
2021/11/23 12:17:28;;;;;;;4.82;1.17;;;11.50;99.90;;;;;;4951947;29;20079;-59
2021/11/23 12:20:15;;;;;;;10.70;2.85;;;11.50;99.90;;;;;;4951918;29;20050;-59
2021/11/23 12:22:44;;;;;;;7.82;1.98;;;11.50;99.90;;;;;;4951237;29;20047;-59
2021/11/23 12:25:12;;;;;;;14.60;1.85;;;11.40;99.90;;;;;;4951936;29;20047;-59
2021/11/23 12:27:45;;;;;;;5.07;0.90;;;11.30;99.90;;;;;;4951787;29;20446;-59
2021/11/23 12:30:19;;;;;;;4.05;0.65;;;11.20;99.90;;;;;;4962643;28;20129;-59
2021/11/23 12:32:46;;;;;;;5.00;0.85;;;11.10;99.90;;;;;;5007565;28;20401;-59
2021/11/23 12:35:15;;;;;;;5.18;1.00;;;11.10;99.90;;;;;;4992674;28;20046;-59
2021/11/23 12:37:44;;;;;;;7.90;1.58;;;11.00;99.90;;;;;;4992626;28;20039;-59
2021/11/23 12:40:25;;;;;;;6.80;0.90;;;10.90;99.90;;;;;;5007765;28;20046;-59
2021/11/23 12:42:54;;;;;;;5.53;1.30;;;10.90;99.90;;;;;;4992380;28;20629;-59
2021/11/23 12:45:19;;;;;;;;;;;10.80;99.90;;;;;;4992772;28;20043;-59
2021/11/23 12:47:50;;;;;;;5.70;1.05;;;10.80;99.90;;;;;;4992415;28;19925;-59
2021/11/23 12:50:17;;;;;;;3.78;0.90;;;10.60;99.90;;;;;;4992175;28;20500;-59
2021/11/23 12:52:43;;;;;;;11.18;1.33;;;10.50;99.90;;;;;;4991248;28;20480;-59
2021/11/23 12:55:09;;;;;;;5.10;1.50;;;10.50;99.90;;;;;;4992354;28;20092;-59
2021/11/23 12:57:36;;;;;;;5.72;0.85;;;10.40;99.90;;;;;;4992300;28;20050;-59